Ribeirao Cascalheira, Brazil
Current Conditions -  °F | °C
As of 7:00 PM on Tuesday 21 Oct 2014 (Local Time) from SBBW Reporting Station
Clear Clear  
Wind Chill: 88°   Ceiling: Unl
Heat Index: 89°   Visibility: 6mi
Dew Point: 64°   Wind: 5mph
Humidity: 46%   Direction: 120°ESE
Pressure: 29.83"   Gusts: NA
Location:  12.94°S, 51.82°W
Report Text: SBBW 212200Z 12004KT CAVOK 31/18 Q1010
Loading
Personal Weather Stations






























Interactive Weather Map
Tropical Storm Tracking
New forecast layout! Learn more

10-Day Weather Forecast

Advertisements
Track Severe Weather on mobile